createdAt,value
2022-09-06T00:00:48.372Z,101406.97
2022-09-06T00:03:35.577Z,101402.66
2022-09-06T00:06:22.629Z,101402.56
2022-09-06T00:09:09.588Z,101405.81
2022-09-06T00:11:56.664Z,101394.63
2022-09-06T00:14:43.752Z,101390.97
2022-09-06T00:17:32.624Z,101389.06
2022-09-06T00:20:19.810Z,101386.72
2022-09-06T00:23:07.313Z,101389.16
2022-09-06T00:26:01.317Z,101383.50
2022-09-06T00:28:48.681Z,101379.38
2022-09-06T00:31:35.780Z,101382.66
2022-09-06T00:34:22.898Z,101378.25
2022-09-06T00:37:09.901Z,101377.03
2022-09-06T00:39:56.973Z,101368.84
2022-09-06T00:42:44.052Z,101368.13
2022-09-06T00:45:32.137Z,101371.34
2022-09-06T00:48:19.531Z,101372.19
2022-09-06T00:51:11.218Z,101365.75
2022-09-06T00:53:59.273Z,101368.19
2022-09-06T00:56:47.043Z,101365.69
2022-09-06T00:59:37.275Z,101366.53
2022-09-06T01:02:24.522Z,101356.78
2022-09-06T01:05:12.610Z,101361.22
2022-09-06T01:07:59.885Z,101352.69
2022-09-06T01:11:06.965Z,101353.09
2022-09-06T01:13:59.815Z,101355.88
2022-09-06T01:17:21.518Z,101353.78
2022-09-06T01:20:23.762Z,101352.59
2022-09-06T01:23:32.150Z,101346.19
2022-09-06T01:26:57.926Z,101348.97
2022-09-06T01:30:13.018Z,101351.88
2022-09-06T01:33:12.155Z,101354.25
2022-09-06T01:36:07.135Z,101349.41
2022-09-06T01:38:54.149Z,101353.84
2022-09-06T01:41:41.182Z,101346.19
2022-09-06T01:44:30.429Z,101355.91
2022-09-06T01:47:23.606Z,101351.91
2022-09-06T01:50:32.333Z,101359.16
2022-09-06T01:53:54.036Z,101348.63
2022-09-06T01:56:53.222Z,101342.19
2022-09-06T02:00:25.442Z,101331.72
2022-09-06T02:03:24.602Z,101333.34
2022-09-06T02:06:20.933Z,101330.53
2022-09-06T02:09:13.331Z,101322.78
2022-09-06T02:12:04.292Z,101330.06
2022-09-06T02:14:57.169Z,101337.00
2022-09-06T02:17:53.521Z,101336.59
2022-09-06T02:20:50.840Z,101326.09
2022-09-06T02:23:40.505Z,101332.97
2022-09-06T02:26:32.756Z,101330.53
2022-09-06T02:29:20.057Z,101330.94
2022-09-06T02:32:10.104Z,101332.56
2022-09-06T02:34:57.726Z,101327.72
2022-09-06T02:37:45.278Z,101324.88
2022-09-06T02:40:32.373Z,101323.66
2022-09-06T02:43:19.922Z,101329.75
2022-09-06T02:46:07.190Z,101330.94
2022-09-06T02:48:54.282Z,101327.31
2022-09-06T02:51:41.475Z,101326.53
2022-09-06T02:54:28.607Z,101328.16
2022-09-06T02:57:15.636Z,101335.00
2022-09-06T03:00:04.627Z,101327.31
2022-09-06T03:02:51.686Z,101329.75
2022-09-06T03:05:38.955Z,101324.06
2022-09-06T03:08:26.532Z,101313.97
2022-09-06T03:11:13.983Z,101311.56
2022-09-06T03:14:00.996Z,101296.19
2022-09-06T03:16:48.087Z,101313.22
2022-09-06T03:19:35.208Z,101311.66
2022-09-06T03:22:22.222Z,101307.22
2022-09-06T03:25:10.408Z,101298.22
2022-09-06T03:27:57.458Z,101301.06
2022-09-06T03:30:46.257Z,101299.16
2022-09-06T03:33:33.427Z,101295.06
2022-09-06T03:36:20.569Z,101293.88
2022-09-06T03:39:07.672Z,101299.16
2022-09-06T03:41:54.636Z,101297.16
2022-09-06T03:44:41.778Z,101290.69
2022-09-06T03:47:28.722Z,101288.31
2022-09-06T03:50:15.898Z,101286.75
2022-09-06T03:53:02.845Z,101298.03
2022-09-06T03:55:52.796Z,101295.59
2022-09-06T03:58:39.799Z,101294.41
2022-09-06T04:01:27.003Z,101289.97
2022-09-06T04:04:14.165Z,101287.13
2022-09-06T04:07:01.226Z,101286.75
2022-09-06T04:09:48.572Z,101275.47
2022-09-06T04:12:35.567Z,101277.91
2022-09-06T04:15:22.526Z,101276.66
2022-09-06T04:18:09.533Z,101269.38
2022-09-06T04:20:57.191Z,101281.47
2022-09-06T04:23:44.213Z,101281.47
2022-09-06T04:26:31.411Z,101270.19
2022-09-06T04:29:18.425Z,101277.03
2022-09-06T04:32:05.652Z,101274.25
2022-09-06T04:34:52.695Z,101273.81
2022-09-06T04:37:40.065Z,101273.03
2022-09-06T04:40:27.129Z,101277.91
2022-09-06T04:43:14.116Z,101309.41
2022-09-06T04:46:09.563Z,101302.94
2022-09-06T04:48:58.102Z,101300.50
2022-09-06T04:51:45.122Z,101299.75
2022-09-06T04:54:32.265Z,101309.44
2022-09-06T04:57:19.310Z,101312.66
2022-09-06T05:00:07.153Z,101312.75
2022-09-06T05:02:54.164Z,101315.19
2022-09-06T05:05:41.492Z,101304.25
2022-09-06T05:08:29.831Z,101295.75
2022-09-06T05:11:18.150Z,101301.41
2022-09-06T05:14:10.244Z,101311.13
2022-09-06T05:20:29.037Z,101309.50
2022-09-06T05:23:16.201Z,101313.56
2022-09-06T05:26:07.961Z,101310.28
2022-09-06T05:28:55.844Z,101305.47
2022-09-06T05:32:17.802Z,101308.31
2022-09-06T05:38:07.811Z,101310.28
2022-09-06T05:41:07.971Z,101315.13
2022-09-06T05:43:55.606Z,101328.44
2022-09-06T05:49:57.788Z,101321.66
2022-09-06T06:04:19.430Z,101332.16
2022-09-06T06:11:21.534Z,101281.31
2022-09-06T06:17:28.345Z,101292.69
2022-09-06T06:24:04.108Z,101314.50
2022-09-06T06:26:51.298Z,101319.75
2022-09-06T06:29:38.303Z,101337.09
2022-09-06T06:32:30.665Z,101325.81
2022-09-06T06:35:18.585Z,101317.34
2022-09-06T06:38:05.651Z,101319.38
2022-09-06T06:40:57.219Z,101318.56
2022-09-06T06:44:03.569Z,101331.88
2022-09-06T06:46:51.718Z,101347.19
2022-09-06T06:49:39.191Z,101351.59
2022-09-06T07:30:45.100Z,101369.13
2022-09-06T07:37:25.491Z,101353.50
2022-09-06T07:54:31.865Z,101374.91
2022-09-06T07:57:24.218Z,101376.84
2022-09-06T08:04:53.490Z,101384.44
2022-09-06T08:07:40.944Z,101388.00
2022-09-06T08:10:31.398Z,101381.91
2022-09-06T08:29:16.379Z,101388.72
2022-09-06T08:32:03.875Z,101397.66
2022-09-06T08:34:50.926Z,101387.66
2022-09-06T08:37:37.976Z,101392.19
2022-09-06T08:40:25.554Z,101395.63
2022-09-06T08:43:18.602Z,101391.97
2022-09-06T08:46:07.998Z,101394.22
2022-09-06T08:48:55.615Z,101376.81
2022-09-06T08:52:20.092Z,101393.63
2022-09-06T08:55:23.806Z,101385.94
2022-09-06T08:58:18.349Z,101397.25
2022-09-06T09:01:17.662Z,101390.19
2022-09-06T09:04:07.633Z,101374.81
2022-09-06T09:07:00.818Z,101368.00
2022-09-06T09:09:48.098Z,101369.94
2022-09-06T09:12:42.287Z,101360.75
2022-09-06T09:15:29.462Z,101361.66
2022-09-06T09:18:25.791Z,101353.84
2022-09-06T09:21:14.153Z,101347.13
2022-09-06T09:24:13.483Z,101332.56
2022-09-06T09:27:08.787Z,101315.22
2022-09-06T09:33:29.218Z,101328.47
2022-09-06T09:36:21.490Z,101330.66
2022-09-06T09:39:12.662Z,101326.78
2022-09-06T09:42:00.047Z,101330.22
2022-09-06T09:44:47.154Z,101324.38
2022-09-06T09:47:34.567Z,101314.16
2022-09-06T09:50:31.939Z,101335.13
2022-09-06T09:53:22.543Z,101334.28
2022-09-06T09:56:09.655Z,101339.44
2022-09-06T09:59:01.801Z,101338.91
2022-09-06T10:01:49.902Z,101338.94
2022-09-06T10:04:45.120Z,101341.16
2022-09-06T10:07:49.929Z,101334.94
2022-09-06T10:10:43.459Z,101340.22
2022-09-06T10:13:31.226Z,101348.59
2022-09-06T10:16:47.461Z,101344.44
2022-09-06T10:19:43.248Z,101353.41
2022-09-06T10:22:51.269Z,101357.69
2022-09-06T10:25:43.041Z,101347.28
2022-09-06T10:28:39.429Z,101349.22
2022-09-06T10:32:11.063Z,101340.63
2022-09-06T10:47:15.863Z,101346.50
2022-09-06T10:50:06.407Z,101344.00
2022-09-06T11:02:02.765Z,101342.13
2022-09-06T11:09:31.943Z,101347.97
2022-09-06T11:36:10.130Z,101325.44
2022-09-06T11:41:53.102Z,101318.13
2022-09-06T12:18:43.262Z,101295.59
2022-09-06T12:21:36.456Z,101300.84
2022-09-06T12:39:12.722Z,101292.69
2022-09-06T12:42:06.946Z,101281.72
2022-09-06T14:01:11.739Z,101199.09
2022-09-06T14:03:59.638Z,101197.00
2022-09-06T14:06:47.937Z,101208.19
2022-09-06T14:09:34.938Z,101195.59
2022-09-06T14:12:21.978Z,101196.06
2022-09-06T14:15:10.022Z,101203.72
2022-09-06T14:17:57.138Z,101192.25
2022-09-06T14:20:52.347Z,101181.09
2022-09-06T14:23:39.454Z,101190.03
2022-09-06T14:26:26.544Z,101181.72
2022-09-06T14:29:13.607Z,101186.19
2022-09-06T14:32:00.853Z,101175.34
2022-09-06T14:34:47.952Z,101162.16
2022-09-06T14:37:34.969Z,101172.81
2022-09-06T14:40:22.229Z,101168.19
2022-09-06T14:43:09.229Z,101153.69
2022-09-06T14:46:12.846Z,101157.19
2022-09-06T14:49:07.465Z,101162.94
2022-09-06T14:51:54.619Z,101156.22
2022-09-06T14:54:41.736Z,101172.19
2022-09-06T14:57:30.109Z,101164.50
2022-09-06T15:00:17.883Z,101161.97
2022-09-06T15:03:04.929Z,101157.81
2022-09-06T15:05:51.975Z,101150.81
2022-09-06T15:08:39.072Z,101148.59
2022-09-06T15:11:35.079Z,101132.81
2022-09-06T15:14:28.474Z,101144.47
2022-09-06T15:17:15.556Z,101127.28
2022-09-06T15:20:02.976Z,101116.75
2022-09-06T15:22:56.322Z,101124.69
2022-09-06T15:25:56.245Z,101115.13
2022-09-06T15:28:44.548Z,101107.34
2022-09-06T15:31:34.290Z,101106.53
2022-09-06T15:34:24.350Z,101103.34
2022-09-06T15:37:11.313Z,101104.03
2022-09-06T15:39:58.384Z,101081.22
2022-09-06T15:42:45.471Z,101099.84
2022-09-06T15:45:46.763Z,101100.28
2022-09-06T15:48:47.984Z,101092.03
2022-09-06T15:51:37.222Z,101101.56
2022-09-06T15:54:44.380Z,101077.22
2022-09-06T15:57:31.470Z,101088.69
2022-09-06T16:00:22.193Z,101083.44
2022-09-06T16:03:09.217Z,101068.28
2022-09-06T16:09:19.854Z,101065.94
2022-09-06T16:12:07.115Z,101044.66
2022-09-06T16:14:54.124Z,101051.00
2022-09-06T16:17:41.187Z,101040.13
2022-09-06T16:20:31.658Z,101036.00
2022-09-06T16:23:20.618Z,101039.97
2022-09-06T16:26:09.462Z,101029.28
2022-09-06T16:28:56.460Z,101034.34
2022-09-06T16:31:43.548Z,101037.47
2022-09-06T16:34:30.650Z,101036.16
2022-09-06T16:37:17.713Z,101035.19
2022-09-06T16:40:05.203Z,101032.50
2022-09-06T16:42:54.568Z,101033.38
2022-09-06T16:45:41.730Z,101034.28
2022-09-06T16:48:29.469Z,101036.16
2022-09-06T16:51:18.597Z,101056.31
2022-09-06T16:54:05.690Z,101028.47
2022-09-06T16:56:52.878Z,101030.88
2022-09-06T16:59:40.736Z,101029.50
2022-09-06T17:02:28.383Z,101036.97
2022-09-06T17:05:15.417Z,101041.66
2022-09-06T17:08:03.314Z,101040.41
2022-09-06T17:10:50.366Z,101034.63
2022-09-06T17:13:38.041Z,101039.09
2022-09-06T17:16:44.205Z,101030.31
2022-09-06T17:19:40.274Z,101044.00
2022-09-06T17:22:27.358Z,101045.75
2022-09-06T17:25:14.785Z,101041.28
2022-09-06T17:28:01.984Z,101036.16
2022-09-06T17:30:49.856Z,101051.09
2022-09-06T17:33:37.197Z,101044.47
2022-09-06T17:36:30.564Z,101046.00
2022-09-06T17:39:21.041Z,101049.44
2022-09-06T17:42:08.718Z,101050.84
2022-09-06T17:44:55.749Z,101048.81
2022-09-06T17:47:42.748Z,101057.44
2022-09-06T17:50:33.959Z,101052.25
2022-09-06T17:53:20.982Z,101065.81
2022-09-06T17:56:10.389Z,101073.50
2022-09-06T17:59:00.098Z,101069.41
2022-09-06T18:01:47.608Z,101073.94
2022-09-06T18:04:34.852Z,101070.47
2022-09-06T18:07:21.902Z,101068.06
2022-09-06T18:10:10.021Z,101076.34
2022-09-06T18:12:57.010Z,101073.16
2022-09-06T18:15:44.146Z,101073.47
2022-09-06T18:18:32.786Z,101077.97
2022-09-06T18:21:20.221Z,101080.38
2022-09-06T18:24:09.400Z,101080.13
2022-09-06T18:26:56.444Z,101081.38
2022-09-06T18:29:43.490Z,101076.28
2022-09-06T18:32:30.986Z,101081.94
2022-09-06T18:35:18.072Z,101082.47
2022-09-06T18:38:05.158Z,101083.47
2022-09-06T18:40:52.330Z,101075.44
2022-09-06T18:43:40.395Z,101079.31
2022-09-06T18:46:27.871Z,101067.13
2022-09-06T18:49:16.130Z,101065.59
2022-09-06T18:52:05.174Z,101069.66
2022-09-06T18:54:52.361Z,101078.22
2022-09-06T18:57:39.558Z,101077.13
2022-09-06T19:00:26.992Z,101065.47
2022-09-06T19:03:14.464Z,101072.41
2022-09-06T19:06:06.757Z,101075.38
2022-09-06T19:08:57.581Z,101072.97
2022-09-06T19:11:47.072Z,101072.66
2022-09-06T19:14:34.370Z,101070.78
2022-09-06T19:17:21.387Z,101074.97
2022-09-06T19:20:10.789Z,101077.13
2022-09-06T19:22:57.789Z,101071.22
2022-09-06T19:25:45.890Z,101077.91
2022-09-06T19:28:33.745Z,101065.47
2022-09-06T19:31:20.838Z,101072.34
2022-09-06T19:34:08.013Z,101066.44
2022-09-06T19:36:57.379Z,101063.59
2022-09-06T19:39:44.460Z,101062.00
2022-09-06T19:42:31.561Z,101059.59
2022-09-06T19:45:18.595Z,101059.75
2022-09-06T19:48:06.506Z,101055.75
2022-09-06T19:50:53.490Z,101051.69
2022-09-06T19:53:41.958Z,101061.50
2022-09-06T19:56:34.486Z,101051.50
2022-09-06T19:59:21.501Z,101056.00
2022-09-06T20:02:09.463Z,101054.38
2022-09-06T20:04:56.551Z,101052.00
2022-09-06T20:07:43.749Z,101050.38
2022-09-06T20:10:31.185Z,101039.50
2022-09-06T20:13:18.274Z,101038.28
2022-09-06T20:16:07.328Z,101032.69
2022-09-06T20:18:55.214Z,101028.59
2022-09-06T20:21:43.044Z,101031.06
2022-09-06T20:24:30.058Z,101032.75
2022-09-06T20:27:17.117Z,101015.78
2022-09-06T20:30:04.517Z,101011.81
2022-09-06T20:32:51.517Z,101013.38
2022-09-06T20:35:38.550Z,101003.31
2022-09-06T20:38:26.015Z,101000.41
2022-09-06T20:41:16.410Z,100992.44
2022-09-06T20:44:03.944Z,100995.50
2022-09-06T20:46:51.590Z,100985.53
2022-09-06T20:49:38.653Z,100991.53
2022-09-06T20:52:25.963Z,100992.75
2022-09-06T20:55:13.025Z,100985.50
2022-09-06T20:58:00.018Z,100981.91
2022-09-06T21:00:47.033Z,100988.44
2022-09-06T21:03:37.308Z,100973.91
2022-09-06T21:06:29.100Z,100966.63
2022-09-06T21:09:16.506Z,100963.47
2022-09-06T21:12:04.682Z,100963.56
2022-09-06T21:14:51.787Z,100959.59
2022-09-06T21:17:39.039Z,100966.84
2022-09-06T21:20:26.326Z,100959.50
2022-09-06T21:23:13.693Z,100972.03
2022-09-06T21:26:03.161Z,100978.19
2022-09-06T21:28:50.639Z,100986.31
2022-09-06T21:31:38.288Z,100973.09
2022-09-06T21:34:25.895Z,100969.50
2022-09-06T21:37:13.071Z,100972.59
2022-09-06T21:40:00.285Z,100976.59
2022-09-06T21:42:48.009Z,100978.25
2022-09-06T21:45:38.261Z,100973.41
2022-09-06T21:48:25.507Z,100961.75
2022-09-06T21:51:18.697Z,100954.06
2022-09-06T21:54:06.862Z,100943.09
2022-09-06T21:56:54.783Z,100953.59
2022-09-06T21:59:41.857Z,100948.19
2022-09-06T22:02:29.035Z,100945.03
2022-09-06T22:05:16.134Z,100951.47
2022-09-06T22:08:03.390Z,100952.31
2022-09-06T22:10:50.714Z,100952.72
2022-09-06T22:13:38.210Z,100958.78
2022-09-06T22:16:25.344Z,100958.38
2022-09-06T22:19:12.809Z,100954.78
2022-09-06T22:21:59.785Z,100953.13
2022-09-06T22:24:46.858Z,100955.13
2022-09-06T22:27:33.909Z,100961.28
2022-09-06T22:30:25.506Z,100968.97
2022-09-06T22:33:12.728Z,100962.88
2022-09-06T22:36:02.959Z,100952.78
2022-09-06T22:38:57.502Z,100952.84
2022-09-06T22:41:44.965Z,100955.78
2022-09-06T22:44:31.978Z,100944.91
2022-09-06T22:47:19.030Z,100946.91
2022-09-06T22:50:06.737Z,100938.75
2022-09-06T22:52:54.141Z,100941.63
2022-09-06T22:55:47.284Z,100940.47
2022-09-06T22:58:35.459Z,100946.22
2022-09-06T23:01:22.587Z,100947.47
2022-09-06T23:04:10.197Z,100935.84
2022-09-06T23:06:59.834Z,100938.66
2022-09-06T23:09:46.853Z,100932.59
2022-09-06T23:12:33.823Z,100921.38
2022-09-06T23:15:20.857Z,100914.16
2022-09-06T23:18:08.642Z,100923.03
2022-09-06T23:20:55.713Z,100912.56
2022-09-06T23:23:43.488Z,100910.59
2022-09-06T23:26:32.176Z,100910.22
2022-09-06T23:29:19.302Z,100898.97
2022-09-06T23:32:07.132Z,100887.66
2022-09-06T23:34:55.834Z,100888.50
2022-09-06T23:37:42.869Z,100891.75
2022-09-06T23:40:29.921Z,100884.53
2022-09-06T23:43:16.934Z,100880.09
2022-09-06T23:46:04.108Z,100880.44
2022-09-06T23:48:51.118Z,100886.94
2022-09-06T23:51:38.203Z,100883.25
2022-09-06T23:54:25.170Z,100885.97
2022-09-06T23:57:12.338Z,100884.31
2022-09-06T23:59:59.316Z,100881.81
